Hlavní strana
METAR-TAF:

METAR-TAF

Letiště :

Blackstone, Virginie, Spojené státy americké

zeměpisná šířka: 37-04-26N, zeměpisná délka: 077-57-09W, výška: 134 m

Aktuální stav počasí

Zpráva byla vytvořena před 24 minutami, v 09:15 UTC
Západojihozápadní vítr 6 kt
Teplota 17°C
Vlhkost vzduchu 39%
Tlak 1014 hPa
Viditelnost: 16.1 km
Jasno

METAR: KBKT 300915Z AUTO 24006KT 10SM CLR 17/03 A2995 RMK AO1 T01700031

Čas: 05:39 (09:39 UTC)


TAF: chybějící

Stav a předpovědi počasí z více než 4 000 letišť (zprávy METAR a TAF).

Červené a žluté tečky na mapě představují dostupné meteorologické stanice.

Když kurzor umístíte na tečku, zobrazí se název stanice.

Pak kliknutím zobrazíte stav a předpověď počasí.

Chcete-li změnit mapu, kliknutím na zelené tlačítko se znaménkem +mapu přiblížíte, kliknutím na zelené tlačítko se znaménkem – mapu oddálíte a kliknutím na zelené šipky přejdete na sousední mapy.


METAR-TAF: